createdAt,value
2022-11-09T00:02:26.537Z,4.87
2022-11-09T00:05:29.085Z,6.22
2022-11-09T00:08:33.151Z,5.65
2022-11-09T00:11:36.087Z,5.30
2022-11-09T00:14:38.828Z,4.67
2022-11-09T00:17:41.571Z,5.00
2022-11-09T00:23:52.165Z,6.43
2022-11-09T00:26:54.949Z,5.38
2022-11-09T00:29:57.482Z,6.60
2022-11-09T00:33:00.331Z,4.60
2022-11-09T00:36:07.581Z,5.63
2022-11-09T00:39:11.613Z,7.30
2022-11-09T00:42:14.313Z,5.15
2022-11-09T00:45:17.116Z,5.73
2022-11-09T00:48:19.823Z,6.55
2022-11-09T00:51:22.451Z,4.97
2022-11-09T00:54:26.558Z,5.57
2022-11-09T00:57:29.354Z,4.40
2022-11-09T01:00:31.935Z,5.23
2022-11-09T01:03:34.794Z,5.72
2022-11-09T01:06:37.453Z,4.90
2022-11-09T01:09:41.468Z,5.25
2022-11-09T01:12:44.170Z,5.25
2022-11-09T01:15:49.212Z,4.93
2022-11-09T01:18:54.291Z,5.90
2022-11-09T01:21:56.841Z,5.85
2022-11-09T01:25:00.994Z,4.85
2022-11-09T01:28:04.627Z,5.43
2022-11-09T01:31:08.657Z,5.30
2022-11-09T01:34:14.571Z,4.95
2022-11-09T01:37:17.131Z,6.18
2022-11-09T01:40:21.190Z,4.13
2022-11-09T01:43:25.366Z,5.90
2022-11-09T01:46:35.514Z,6.30
2022-11-09T01:49:42.121Z,5.25
2022-11-09T01:52:48.307Z,4.25
2022-11-09T01:55:56.410Z,6.40
2022-11-09T01:59:02.688Z,5.25
2022-11-09T02:02:06.135Z,5.30
2022-11-09T02:05:13.813Z,7.72
2022-11-09T02:08:19.690Z,4.57
2022-11-09T02:11:25.329Z,5.32
2022-11-09T02:14:30.737Z,5.82
2022-11-09T02:17:35.150Z,5.07
2022-11-09T02:20:48.400Z,6.40
2022-11-09T02:23:51.738Z,4.97
2022-11-09T02:26:55.782Z,5.03
2022-11-09T02:30:00.247Z,7.28
2022-11-09T02:33:02.822Z,5.27
2022-11-09T02:36:07.277Z,5.22
2022-11-09T02:39:11.139Z,5.55
2022-11-09T02:42:21.261Z,5.15
2022-11-09T02:45:24.478Z,5.59
2022-11-09T02:48:27.287Z,6.17
2022-11-09T02:51:31.678Z,4.90
2022-11-09T02:54:34.293Z,5.20
2022-11-09T02:57:37.045Z,4.97
2022-11-09T03:00:39.742Z,3.72
2022-11-09T03:03:42.438Z,5.33
2022-11-09T03:06:46.532Z,6.03
2022-11-09T03:09:49.103Z,6.47
2022-11-09T03:12:51.825Z,5.50
2022-11-09T03:15:54.622Z,5.80
2022-11-09T03:18:58.093Z,6.03
2022-11-09T03:22:02.201Z,5.25
2022-11-09T03:25:05.328Z,4.95
2022-11-09T03:28:09.085Z,5.65
2022-11-09T03:31:11.967Z,6.30
2022-11-09T03:34:14.770Z,4.93
2022-11-09T03:37:19.375Z,5.68
2022-11-09T03:40:22.402Z,7.50
2022-11-09T03:43:25.099Z,4.63
2022-11-09T03:46:28.078Z,6.60
2022-11-09T03:49:30.736Z,5.63
2022-11-09T03:52:35.085Z,5.50
2022-11-09T03:55:38.310Z,6.68
2022-11-09T03:58:41.043Z,5.53
2022-11-09T04:01:43.809Z,5.07
2022-11-09T04:04:46.478Z,5.70
2022-11-09T04:07:52.302Z,4.65
2022-11-09T04:10:55.505Z,6.68
2022-11-09T04:13:58.236Z,5.32
2022-11-09T04:17:00.913Z,5.47
2022-11-09T04:20:03.652Z,4.60
2022-11-09T04:23:10.955Z,7.90
2022-11-09T04:26:13.491Z,5.15
2022-11-09T04:29:16.194Z,5.20
2022-11-09T04:32:18.986Z,5.78
2022-11-09T04:35:21.560Z,5.07
2022-11-09T04:38:25.513Z,5.95
2022-11-09T04:41:28.825Z,6.55
2022-11-09T04:44:31.380Z,5.28
2022-11-09T04:47:33.935Z,4.43
2022-11-09T04:50:36.765Z,6.27
2022-11-09T04:53:41.415Z,6.20
2022-11-09T04:56:44.029Z,5.35
2022-11-09T04:59:46.774Z,4.57
2022-11-09T05:02:49.329Z,5.88
2022-11-09T05:05:51.990Z,6.80
2022-11-09T05:08:57.078Z,6.90
2022-11-09T05:11:59.649Z,5.78
2022-11-09T05:15:02.343Z,5.85
2022-11-09T05:18:06.236Z,5.10
2022-11-09T05:21:08.797Z,6.23
2022-11-09T05:24:13.063Z,5.40
2022-11-09T05:27:17.321Z,6.60
2022-11-09T05:30:20.320Z,6.03
2022-11-09T05:33:23.365Z,9.48
2022-11-09T05:36:27.761Z,5.83
2022-11-09T05:39:31.762Z,6.25
2022-11-09T05:42:34.330Z,6.82
2022-11-09T05:45:42.733Z,5.60
2022-11-09T05:48:46.624Z,4.88
2022-11-09T05:51:49.172Z,5.33
2022-11-09T05:54:53.079Z,5.80
2022-11-09T05:57:55.785Z,6.00
2022-11-09T06:00:59.899Z,6.80
2022-11-09T06:04:02.623Z,6.28
2022-11-09T06:07:05.295Z,5.67
2022-11-09T06:10:10.596Z,7.10
2022-11-09T06:13:13.157Z,5.90
2022-11-09T06:16:15.908Z,6.95
2022-11-09T06:19:18.490Z,8.88
2022-11-09T06:22:21.060Z,7.60
2022-11-09T06:25:25.873Z,8.02
2022-11-09T06:28:28.912Z,7.90
2022-11-09T06:31:31.658Z,7.13
2022-11-09T06:34:34.395Z,5.88
2022-11-09T06:37:37.196Z,6.17
2022-11-09T06:40:41.230Z,5.18
2022-11-09T06:43:44.019Z,6.38
2022-11-09T06:46:46.611Z,7.35
2022-11-09T06:49:49.342Z,6.57
2022-11-09T06:52:51.921Z,5.90
2022-11-09T06:55:58.762Z,5.60
2022-11-09T06:59:01.343Z,7.05
2022-11-09T07:02:04.069Z,5.72
2022-11-09T07:05:07.282Z,8.48
2022-11-09T07:08:10.498Z,9.83
2022-11-09T07:11:17.018Z,6.20
2022-11-09T07:14:19.632Z,6.68
2022-11-09T07:17:22.334Z,6.82
2022-11-09T07:20:25.103Z,7.88
2022-11-09T07:23:27.737Z,6.27
2022-11-09T07:26:31.770Z,6.82
2022-11-09T07:29:34.364Z,6.15
2022-11-09T07:33:07.342Z,5.32
2022-11-09T07:36:02.074Z,7.27
2022-11-09T07:39:09.643Z,6.03
2022-11-09T07:42:13.684Z,6.60
2022-11-09T07:45:16.362Z,6.13
2022-11-09T07:48:19.103Z,6.65
2022-11-09T07:51:21.812Z,6.25
2022-11-09T07:54:25.759Z,6.25
2022-11-09T07:57:29.796Z,7.03
2022-11-09T08:00:34.602Z,7.30
2022-11-09T08:03:37.739Z,7.28
2022-11-09T08:06:40.351Z,7.78
2022-11-09T08:09:43.479Z,7.10
2022-11-09T08:12:54.573Z,8.27
2022-11-09T08:15:57.172Z,6.80
2022-11-09T08:18:59.863Z,5.72
2022-11-09T08:22:02.588Z,8.43
2022-11-09T08:25:05.766Z,9.20
2022-11-09T08:28:14.470Z,8.63
2022-11-09T08:31:17.685Z,9.40
2022-11-09T08:34:20.402Z,8.43
2022-11-09T08:37:22.996Z,8.35
2022-11-09T08:40:26.930Z,6.25
2022-11-09T08:43:30.893Z,7.63
2022-11-09T08:46:38.372Z,9.43
2022-11-09T08:49:44.575Z,8.20
2022-11-09T08:52:47.146Z,8.05
2022-11-09T08:55:49.836Z,6.22
2022-11-09T08:58:53.922Z,6.65
2022-11-09T09:01:56.668Z,6.90
2022-11-09T09:04:59.291Z,6.15
2022-11-09T09:08:02.753Z,7.68
2022-11-09T09:11:06.208Z,8.07
2022-11-09T09:14:10.303Z,9.82
2022-11-09T09:17:13.057Z,6.73
2022-11-09T09:20:16.281Z,7.60
2022-11-09T09:23:19.013Z,7.07
2022-11-09T09:26:22.321Z,7.65
2022-11-09T09:29:26.418Z,7.80
2022-11-09T09:32:30.069Z,6.87
2022-11-09T09:35:32.859Z,8.45
2022-11-09T09:38:35.539Z,6.30
2022-11-09T09:41:41.691Z,7.72
2022-11-09T09:44:51.942Z,7.40
2022-11-09T09:48:00.284Z,6.67
2022-11-09T09:51:07.782Z,8.60
2022-11-09T09:54:17.450Z,7.60
2022-11-09T09:57:23.088Z,5.97
2022-11-09T10:00:29.000Z,6.85
2022-11-09T10:03:32.289Z,6.20
2022-11-09T10:06:44.194Z,7.45
2022-11-09T10:10:10.992Z,7.15
2022-11-09T10:13:30.977Z,7.55
2022-11-09T10:16:43.847Z,6.32
2022-11-09T10:20:01.120Z,6.97
2022-11-09T10:23:24.508Z,6.97
2022-11-09T10:26:34.383Z,7.18
2022-11-09T10:29:42.742Z,7.30
2022-11-09T10:32:51.577Z,6.60
2022-11-09T10:36:06.856Z,7.10
2022-11-09T10:39:14.777Z,7.13
2022-11-09T10:42:17.470Z,7.00
2022-11-09T10:45:29.268Z,5.38
2022-11-09T10:48:36.539Z,6.60
2022-11-09T10:51:42.361Z,6.40
2022-11-09T10:54:44.984Z,6.10
2022-11-09T10:58:00.325Z,6.78
2022-11-09T11:01:06.074Z,6.30
2022-11-09T11:04:23.266Z,5.90
2022-11-09T11:07:26.393Z,5.10
2022-11-09T11:10:29.144Z,5.68
2022-11-09T11:13:31.769Z,6.05
2022-11-09T11:16:35.957Z,6.18
2022-11-09T11:19:41.551Z,6.68
2022-11-09T11:22:44.235Z,6.70
2022-11-09T11:26:00.730Z,7.15
2022-11-09T11:29:14.076Z,7.57
2022-11-09T11:32:21.269Z,6.30
2022-11-09T11:35:35.374Z,6.40
2022-11-09T11:38:42.460Z,6.33
2022-11-09T11:42:15.866Z,7.95
2022-11-09T11:45:41.580Z,5.15
2022-11-09T11:49:10.023Z,6.65
2022-11-09T11:52:19.644Z,6.18
2022-11-09T11:55:40.780Z,8.33
2022-11-09T11:58:56.699Z,6.03
2022-11-09T12:02:23.031Z,6.38
2022-11-09T12:05:56.260Z,5.10
2022-11-09T12:09:22.786Z,4.97
2022-11-09T12:12:36.408Z,4.80
2022-11-09T12:15:51.878Z,5.53
2022-11-09T12:19:23.876Z,5.55
2022-11-09T12:22:40.534Z,4.63
2022-11-09T12:25:50.032Z,4.60
2022-11-09T12:29:08.861Z,5.90
2022-11-09T12:32:22.357Z,3.95
2022-11-09T12:35:33.251Z,6.55
2022-11-09T12:38:42.414Z,4.35
2022-11-09T12:41:49.980Z,4.45
2022-11-09T12:45:02.898Z,6.67
2022-11-09T12:48:16.368Z,3.33
2022-11-09T12:51:20.813Z,4.22
2022-11-09T12:54:25.106Z,5.25
2022-11-09T12:57:31.206Z,4.53
2022-11-09T13:00:51.871Z,3.87
2022-11-09T13:03:57.563Z,5.30
2022-11-09T13:07:49.527Z,4.80
2022-11-09T13:11:10.152Z,3.97
2022-11-09T13:14:39.412Z,3.80
2022-11-09T13:17:56.955Z,3.90
2022-11-09T13:21:35.058Z,4.13
2022-11-09T13:24:57.120Z,3.78
2022-11-09T13:28:00.024Z,3.47
2022-11-09T13:31:04.900Z,3.80
2022-11-09T13:34:46.059Z,4.10
2022-11-09T13:37:56.047Z,5.05
2022-11-09T13:40:59.767Z,4.25
2022-11-09T13:44:16.186Z,4.07
2022-11-09T13:47:25.022Z,6.18
2022-11-09T13:50:30.053Z,4.67
2022-11-09T13:53:52.767Z,5.38
2022-11-09T13:56:56.308Z,4.75
2022-11-09T14:00:00.902Z,5.65
2022-11-09T14:03:17.025Z,5.03
2022-11-09T14:06:20.513Z,4.27
2022-11-09T14:09:23.270Z,3.78
2022-11-09T14:12:42.078Z,4.50
2022-11-09T14:15:53.279Z,4.28
2022-11-09T14:19:17.808Z,4.85
2022-11-09T14:22:21.284Z,3.90
2022-11-09T14:25:25.885Z,5.78
2022-11-09T14:28:30.444Z,4.43
2022-11-09T14:31:33.290Z,4.05
2022-11-09T14:34:37.519Z,4.75
2022-11-09T14:37:45.745Z,5.63
2022-11-09T14:40:50.001Z,5.00
2022-11-09T14:43:54.663Z,5.05
2022-11-09T14:46:58.199Z,5.30
2022-11-09T14:50:02.660Z,5.82
2022-11-09T14:53:06.033Z,6.07
2022-11-09T14:56:12.747Z,4.85
2022-11-09T14:59:17.391Z,6.07
2022-11-09T15:02:22.268Z,6.00
2022-11-09T15:05:40.032Z,5.50
2022-11-09T15:08:51.699Z,5.07
2022-11-09T15:11:55.071Z,4.20
2022-11-09T15:15:01.509Z,4.32
2022-11-09T15:18:04.547Z,5.18
2022-11-09T15:21:21.769Z,5.57
2022-11-09T15:24:26.765Z,6.20
2022-11-09T15:27:32.117Z,7.05
2022-11-09T15:30:39.853Z,6.35
2022-11-09T15:33:49.788Z,6.45
2022-11-09T15:36:56.399Z,4.70
2022-11-09T15:40:00.193Z,5.35
2022-11-09T15:43:03.087Z,6.70
2022-11-09T15:46:06.737Z,5.45
2022-11-09T15:49:19.079Z,5.15
2022-11-09T15:52:23.254Z,4.80
2022-11-09T15:55:26.592Z,5.25
2022-11-09T15:58:29.440Z,4.22
2022-11-09T16:01:32.947Z,3.78
2022-11-09T16:04:35.791Z,5.20
2022-11-09T16:07:48.257Z,5.10
2022-11-09T16:10:50.968Z,5.93
2022-11-09T16:13:53.653Z,5.13
2022-11-09T16:16:56.363Z,4.95
2022-11-09T16:19:59.022Z,5.28
2022-11-09T16:23:03.239Z,5.73
2022-11-09T16:26:09.205Z,5.80
2022-11-09T16:29:12.046Z,4.97
2022-11-09T16:32:14.709Z,5.38
2022-11-09T16:35:32.996Z,5.20
2022-11-09T16:38:40.031Z,5.37
2022-11-09T16:41:43.919Z,5.90
2022-11-09T16:44:49.188Z,7.63
2022-11-09T16:47:57.034Z,5.22
2022-11-09T16:50:59.901Z,5.97
2022-11-09T16:54:04.114Z,5.57
2022-11-09T16:57:06.797Z,8.15
2022-11-09T17:00:10.673Z,11.50
2022-11-09T17:03:14.136Z,8.43
2022-11-09T17:06:17.023Z,6.87
2022-11-09T17:09:21.708Z,6.87
2022-11-09T17:12:24.800Z,5.60
2022-11-09T17:15:27.900Z,6.07
2022-11-09T17:18:30.588Z,7.68
2022-11-09T17:21:33.300Z,9.00
2022-11-09T17:24:37.337Z,9.23
2022-11-09T17:27:40.185Z,9.05
2022-11-09T17:30:42.926Z,9.45
2022-11-09T17:33:45.901Z,10.95
2022-11-09T17:37:03.651Z,10.80
2022-11-09T17:40:09.798Z,10.53
2022-11-09T17:43:12.609Z,9.98
2022-11-09T17:46:16.933Z,9.70
2022-11-09T17:49:19.750Z,14.25
2022-11-09T17:52:22.420Z,15.63
2022-11-09T17:55:26.601Z,13.63
2022-11-09T17:58:30.155Z,11.52
2022-11-09T18:01:39.520Z,10.02
2022-11-09T18:04:43.782Z,10.57
2022-11-09T18:07:46.443Z,11.63
2022-11-09T18:10:51.152Z,10.83
2022-11-09T18:13:54.314Z,8.38
2022-11-09T18:16:59.618Z,6.07
2022-11-09T18:20:02.462Z,4.90
2022-11-09T18:23:05.123Z,4.20
2022-11-09T18:26:10.159Z,4.70
2022-11-09T18:29:13.061Z,5.10
2022-11-09T18:32:15.799Z,4.05
2022-11-09T18:35:18.630Z,3.67
2022-11-09T18:38:24.322Z,3.67
2022-11-09T18:41:30.801Z,3.77
2022-11-09T18:44:33.667Z,2.72
2022-11-09T18:47:36.528Z,2.95
2022-11-09T18:50:39.665Z,3.25
2022-11-09T18:53:44.517Z,3.93
2022-11-09T18:56:49.044Z,4.30
2022-11-09T18:59:51.761Z,4.30
2022-11-09T19:02:54.498Z,4.15
2022-11-09T19:05:57.440Z,4.15
2022-11-09T19:09:17.763Z,4.90
2022-11-09T19:12:22.046Z,4.37
2022-11-09T19:15:24.774Z,4.78
2022-11-09T19:18:27.641Z,7.40
2022-11-09T19:21:37.990Z,6.38
2022-11-09T19:24:40.874Z,6.90
2022-11-09T19:27:44.947Z,7.07
2022-11-09T19:30:47.615Z,5.88
2022-11-09T19:33:50.283Z,7.20
2022-11-09T19:36:52.987Z,7.22
2022-11-09T19:39:55.739Z,8.03
2022-11-09T19:42:59.792Z,6.63
2022-11-09T19:46:05.188Z,6.40
2022-11-09T19:49:09.241Z,7.15
2022-11-09T19:52:12.695Z,6.97
2022-11-09T19:55:15.642Z,6.37
2022-11-09T19:58:19.976Z,5.78
2022-11-09T20:01:23.582Z,6.55
2022-11-09T20:04:26.364Z,6.97
2022-11-09T20:07:29.587Z,6.22
2022-11-09T20:10:32.452Z,6.70
2022-11-09T20:13:39.074Z,6.10
2022-11-09T20:16:44.391Z,6.30
2022-11-09T20:19:47.102Z,5.88
2022-11-09T20:22:50.013Z,5.60
2022-11-09T20:25:52.839Z,5.13
2022-11-09T20:28:56.972Z,5.85
2022-11-09T20:31:59.796Z,6.05
2022-11-09T20:35:02.691Z,6.05
2022-11-09T20:38:05.521Z,6.13
2022-11-09T20:41:11.346Z,6.23
2022-11-09T20:44:15.591Z,4.95
2022-11-09T20:47:30.292Z,6.60
2022-11-09T20:50:40.925Z,6.10
2022-11-09T20:53:44.174Z,6.18
2022-11-09T20:56:46.969Z,5.23
2022-11-09T20:59:51.215Z,5.22
2022-11-09T21:02:53.952Z,6.03
2022-11-09T21:05:59.096Z,8.65
2022-11-09T21:09:04.320Z,7.70
2022-11-09T21:12:22.460Z,5.70
2022-11-09T21:15:26.574Z,6.90
2022-11-09T21:18:29.244Z,5.97
2022-11-09T21:21:36.210Z,6.20
2022-11-09T21:24:57.098Z,6.07
2022-11-09T21:28:20.027Z,5.93
2022-11-09T21:31:24.413Z,7.68
2022-11-09T21:34:29.506Z,6.47
2022-11-09T21:37:35.636Z,7.18
2022-11-09T21:40:38.353Z,8.00
2022-11-09T21:43:41.162Z,9.20
2022-11-09T21:46:46.252Z,7.18
2022-11-09T21:49:49.040Z,8.68
2022-11-09T21:52:51.878Z,5.85
2022-11-09T21:55:54.599Z,6.75
2022-11-09T21:58:57.703Z,6.80
2022-11-09T22:02:01.766Z,6.63
2022-11-09T22:05:05.003Z,6.00
2022-11-09T22:08:08.007Z,5.75
2022-11-09T22:11:13.270Z,7.35
2022-11-09T22:14:35.973Z,9.67
2022-11-09T22:17:40.174Z,5.75
2022-11-09T22:20:56.978Z,6.28
2022-11-09T22:24:00.494Z,5.30
2022-11-09T22:27:03.335Z,5.28
2022-11-09T22:30:07.332Z,5.70
2022-11-09T22:33:11.614Z,6.10
2022-11-09T22:36:15.313Z,5.95
2022-11-09T22:39:18.211Z,5.00
2022-11-09T22:42:21.042Z,6.65
2022-11-09T22:45:23.927Z,5.37
2022-11-09T22:48:28.344Z,5.00
2022-11-09T22:51:31.372Z,5.35
2022-11-09T22:54:34.230Z,6.13
2022-11-09T22:57:37.872Z,6.68
2022-11-09T23:00:41.770Z,5.97
2022-11-09T23:03:45.867Z,5.10
2022-11-09T23:06:48.892Z,4.70
2022-11-09T23:09:51.765Z,4.18
2022-11-09T23:12:54.424Z,4.80
2022-11-09T23:15:58.528Z,4.50
2022-11-09T23:19:02.610Z,5.45
2022-11-09T23:22:05.501Z,5.28
2022-11-09T23:25:26.712Z,4.72
2022-11-09T23:28:29.564Z,3.78
2022-11-09T23:31:32.402Z,5.43
2022-11-09T23:34:36.446Z,5.13
2022-11-09T23:37:39.817Z,4.75
2022-11-09T23:40:42.531Z,3.78
2022-11-09T23:43:49.249Z,3.95
2022-11-09T23:46:52.443Z,5.00
2022-11-09T23:49:56.711Z,4.10
2022-11-09T23:53:02.875Z,5.03
2022-11-09T23:56:07.975Z,3.37
2022-11-09T23:59:10.671Z,5.13
